createdAt,value
2022-10-22T00:00:51.462Z,100256.00
2022-10-22T00:01:54.252Z,100258.09
2022-10-22T00:02:56.946Z,100252.47
2022-10-22T00:03:59.239Z,100256.88
2022-10-22T00:05:01.395Z,100250.44
2022-10-22T00:06:03.677Z,100250.78
2022-10-22T00:07:05.811Z,100250.78
2022-10-22T00:08:08.103Z,100243.63
2022-10-22T00:09:11.086Z,100249.94
2022-10-22T00:10:13.533Z,100254.47
2022-10-22T00:11:18.720Z,100257.72
2022-10-22T00:12:21.222Z,100259.31
2022-10-22T00:13:23.662Z,100264.59
2022-10-22T00:14:25.900Z,100264.44
2022-10-22T00:15:28.271Z,100271.19
2022-10-22T00:16:30.457Z,100265.91
2022-10-22T00:17:32.882Z,100272.44
2022-10-22T00:18:35.558Z,100273.28
2022-10-22T00:19:38.003Z,100263.88
2022-10-22T00:20:40.466Z,100260.53
2022-10-22T00:21:42.644Z,100257.72
2022-10-22T00:22:44.781Z,100262.09
2022-10-22T00:23:47.224Z,100266.50
2022-10-22T00:24:49.397Z,100259.41
2022-10-22T00:25:53.158Z,100265.38
2022-10-22T00:26:55.567Z,100257.38
2022-10-22T00:27:57.866Z,100269.03
2022-10-22T00:29:00.081Z,100270.81
2022-10-22T00:30:07.987Z,100277.09
2022-10-22T00:31:10.185Z,100281.44
2022-10-22T00:32:12.434Z,100277.97
2022-10-22T00:33:14.692Z,100286.19
2022-10-22T00:34:18.777Z,100290.56
2022-10-22T00:35:21.117Z,100291.56
2022-10-22T00:36:23.295Z,100287.31
2022-10-22T00:37:25.631Z,100299.84
2022-10-22T00:38:27.823Z,100293.75
2022-10-22T00:39:29.975Z,100288.31
2022-10-22T00:40:32.237Z,100296.00
2022-10-22T00:41:34.527Z,100285.41
2022-10-22T00:42:36.777Z,100283.78
2022-10-22T00:44:00.442Z,100271.19
2022-10-22T00:45:11.331Z,100264.16
2022-10-22T00:46:13.615Z,100266.06
2022-10-22T00:47:17.782Z,100270.06
2022-10-22T00:48:25.388Z,100280.16
2022-10-22T00:49:27.609Z,100277.69
2022-10-22T00:50:41.921Z,100268.59
2022-10-22T00:51:44.067Z,100264.78
2022-10-22T00:52:46.965Z,100253.81
2022-10-22T00:53:56.094Z,100253.91
2022-10-22T00:54:58.445Z,100241.22
2022-10-22T00:56:01.662Z,100238.47
2022-10-22T00:57:04.031Z,100236.22
2022-10-22T00:58:06.564Z,100234.00
2022-10-22T00:59:09.861Z,100230.75
2022-10-22T01:00:12.754Z,100228.63
2022-10-22T01:01:21.535Z,100234.94
2022-10-22T01:02:23.991Z,100235.44
2022-10-22T01:03:26.410Z,100252.22
2022-10-22T01:04:28.675Z,100242.22
2022-10-22T01:05:38.431Z,100246.75
2022-10-22T01:06:40.723Z,100245.53
2022-10-22T01:07:51.760Z,100241.88
2022-10-22T01:09:02.821Z,100236.94
2022-10-22T01:10:09.055Z,100247.09
2022-10-22T01:11:35.502Z,100248.22
2022-10-22T01:12:40.396Z,100250.19
2022-10-22T01:13:51.898Z,100251.06
2022-10-22T01:15:11.019Z,100255.56
2022-10-22T01:16:22.007Z,100256.84
2022-10-22T01:17:34.088Z,100250.34
2022-10-22T01:19:04.231Z,100254.16
2022-10-22T01:20:31.986Z,100248.00
2022-10-22T01:21:46.619Z,100248.91
2022-10-22T01:23:22.032Z,100243.81
2022-10-22T01:24:41.643Z,100245.38
2022-10-22T01:26:04.504Z,100250.09
2022-10-22T01:27:48.998Z,100236.56
2022-10-22T01:28:56.959Z,100241.19
2022-10-22T01:30:05.097Z,100232.50
2022-10-22T01:31:09.190Z,100239.75
2022-10-22T01:32:16.404Z,100233.34
2022-10-22T01:33:21.125Z,100232.50
2022-10-22T01:34:25.389Z,100236.28
2022-10-22T01:36:42.897Z,100241.75
2022-10-22T01:37:56.221Z,100242.78
2022-10-22T01:39:00.874Z,100250.84
2022-10-22T01:40:05.212Z,100247.28
2022-10-22T01:41:08.028Z,100253.78
2022-10-22T01:42:12.814Z,100254.56
2022-10-22T01:43:15.294Z,100254.38
2022-10-22T01:45:51.724Z,100253.00
2022-10-22T01:47:07.337Z,100243.50
2022-10-22T01:48:21.299Z,100246.72
2022-10-22T01:49:52.916Z,100251.00
2022-10-22T01:51:35.354Z,100248.16
2022-10-22T01:52:56.420Z,100247.44
2022-10-22T01:54:10.263Z,100244.34
2022-10-22T01:55:27.547Z,100241.75
2022-10-22T01:56:36.494Z,100250.75
2022-10-22T01:58:06.170Z,100255.09
2022-10-22T01:59:25.007Z,100264.13
2022-10-22T02:00:31.717Z,100264.97
2022-10-22T02:01:42.891Z,100273.03
2022-10-22T02:02:51.395Z,100268.38
2022-10-22T02:04:10.683Z,100265.69
2022-10-22T02:05:25.184Z,100265.34
2022-10-22T02:06:29.700Z,100263.41
2022-10-22T02:07:39.771Z,100261.00
2022-10-22T02:08:43.235Z,100258.16
2022-10-22T02:09:46.682Z,100259.88
2022-10-22T02:10:50.702Z,100259.94
2022-10-22T02:11:54.617Z,100259.16
2022-10-22T02:13:00.115Z,100263.09
2022-10-22T02:14:05.072Z,100263.16
2022-10-22T02:15:09.136Z,100265.84
2022-10-22T02:16:16.241Z,100262.28
2022-10-22T02:17:21.496Z,100262.19
2022-10-22T02:18:29.887Z,100255.16
2022-10-22T02:19:56.440Z,100248.22
2022-10-22T02:21:00.263Z,100261.59
2022-10-22T02:22:03.330Z,100254.38
2022-10-22T02:23:06.007Z,100249.25
2022-10-22T02:24:08.388Z,100250.91
2022-10-22T02:25:12.039Z,100254.53
2022-10-22T02:26:30.829Z,100253.34
2022-10-22T02:27:49.259Z,100255.69
2022-10-22T02:29:06.913Z,100250.31
2022-10-22T02:31:29.824Z,100249.31
2022-10-22T02:32:39.361Z,100254.75
2022-10-22T02:33:51.035Z,100256.66
2022-10-22T02:34:55.419Z,100256.91
2022-10-22T02:35:59.220Z,100256.91
2022-10-22T02:37:03.359Z,100256.91
2022-10-22T02:38:06.297Z,100252.41
2022-10-22T02:39:10.388Z,100254.06
2022-10-22T02:40:13.492Z,100250.59
2022-10-22T02:41:17.703Z,100253.28
2022-10-22T02:42:20.034Z,100251.56
2022-10-22T02:43:24.678Z,100249.00
2022-10-22T02:44:26.975Z,100254.53
2022-10-22T02:45:29.740Z,100250.91
2022-10-22T02:46:31.900Z,100252.00
2022-10-22T02:47:34.186Z,100252.16
2022-10-22T02:48:36.965Z,100252.06
2022-10-22T02:49:39.428Z,100248.69
2022-10-22T02:50:41.767Z,100245.31
2022-10-22T02:51:43.894Z,100237.25
2022-10-22T02:52:46.259Z,100243.50
2022-10-22T02:53:48.384Z,100244.69
2022-10-22T02:54:50.741Z,100237.56
2022-10-22T02:55:52.951Z,100235.84
2022-10-22T02:56:55.155Z,100236.94
2022-10-22T02:57:57.472Z,100232.63
2022-10-22T02:58:59.630Z,100236.00
2022-10-22T03:00:02.010Z,100233.41
2022-10-22T03:01:04.269Z,100232.53
2022-10-22T03:02:06.446Z,100239.47
2022-10-22T03:03:08.757Z,100229.84
2022-10-22T03:04:11.170Z,100236.00
2022-10-22T03:05:13.722Z,100236.09
2022-10-22T03:06:15.956Z,100241.53
2022-10-22T03:07:18.167Z,100243.97
2022-10-22T03:08:20.304Z,100244.84
2022-10-22T03:09:24.742Z,100238.00
2022-10-22T03:10:27.327Z,100238.47
2022-10-22T03:11:29.676Z,100241.00
2022-10-22T03:12:31.864Z,100247.31
2022-10-22T03:13:34.001Z,100238.72
2022-10-22T03:14:36.507Z,100242.50
2022-10-22T03:15:38.910Z,100246.06
2022-10-22T03:16:41.075Z,100247.09
2022-10-22T03:17:43.375Z,100242.84
2022-10-22T03:18:45.610Z,100242.72
2022-10-22T03:19:47.959Z,100243.53
2022-10-22T03:20:50.311Z,100237.63
2022-10-22T03:22:00.089Z,100244.09
2022-10-22T03:23:03.313Z,100240.44
2022-10-22T03:24:27.493Z,100240.38
2022-10-22T03:25:34.619Z,100228.63
2022-10-22T03:26:38.279Z,100232.19
2022-10-22T03:27:41.677Z,100234.78
2022-10-22T03:28:44.244Z,100238.94
2022-10-22T03:29:50.082Z,100238.88
2022-10-22T03:30:52.583Z,100237.81
2022-10-22T03:31:55.194Z,100240.50
2022-10-22T03:32:57.630Z,100239.84
2022-10-22T03:33:59.814Z,100242.34
2022-10-22T03:35:02.121Z,100237.94
2022-10-22T03:36:06.161Z,100240.50
2022-10-22T03:37:08.534Z,100241.41
2022-10-22T03:38:11.216Z,100237.75
2022-10-22T03:39:16.130Z,100239.41
2022-10-22T03:40:19.081Z,100244.56
2022-10-22T03:41:21.336Z,100247.25
2022-10-22T03:42:24.169Z,100239.19
2022-10-22T03:43:26.772Z,100234.59
2022-10-22T03:44:29.872Z,100235.19
2022-10-22T03:45:32.368Z,100235.31
2022-10-22T03:46:34.556Z,100234.28
2022-10-22T03:47:37.509Z,100229.94
2022-10-22T03:48:39.868Z,100242.31
2022-10-22T03:49:42.201Z,100234.19
2022-10-22T03:50:44.555Z,100234.19
2022-10-22T03:51:46.763Z,100245.00
2022-10-22T03:52:49.050Z,100246.13
2022-10-22T03:53:51.266Z,100247.06
2022-10-22T03:54:53.633Z,100248.09
2022-10-22T03:55:55.920Z,100243.44
2022-10-22T03:56:58.076Z,100234.28
2022-10-22T03:58:00.368Z,100239.56
2022-10-22T03:59:03.880Z,100240.50
2022-10-22T04:00:07.080Z,100244.94
2022-10-22T04:01:12.140Z,100233.41
2022-10-22T04:02:14.588Z,100231.50
2022-10-22T04:03:17.039Z,100238.59
2022-10-22T04:04:19.271Z,100243.09
2022-10-22T04:05:21.527Z,100244.94
2022-10-22T04:06:24.496Z,100243.91
2022-10-22T04:07:26.905Z,100242.06
2022-10-22T04:08:29.181Z,100253.53
2022-10-22T04:09:32.712Z,100254.38
2022-10-22T04:10:34.912Z,100252.66
2022-10-22T04:11:37.227Z,100254.50
2022-10-22T04:12:39.429Z,100254.16
2022-10-22T04:13:42.630Z,100256.06
2022-10-22T04:14:44.951Z,100255.47
2022-10-22T04:15:47.162Z,100255.47
2022-10-22T04:16:49.488Z,100261.88
2022-10-22T04:17:51.714Z,100261.88
2022-10-22T04:18:53.877Z,100252.16
2022-10-22T04:19:56.153Z,100256.59
2022-10-22T04:20:58.304Z,100252.94
2022-10-22T04:22:00.969Z,100252.94
2022-10-22T04:23:03.127Z,100254.69
2022-10-22T04:24:05.689Z,100250.09
2022-10-22T04:25:08.262Z,100253.59
2022-10-22T04:26:10.569Z,100261.50
2022-10-22T04:27:12.724Z,100248.09
2022-10-22T04:28:15.034Z,100247.19
2022-10-22T04:29:17.205Z,100254.31
2022-10-22T04:30:19.716Z,100258.72
2022-10-22T04:31:24.236Z,100258.91
2022-10-22T04:32:27.341Z,100254.38
2022-10-22T04:33:29.676Z,100264.28
2022-10-22T04:34:32.495Z,100268.91
2022-10-22T04:35:38.913Z,100274.28
2022-10-22T04:36:41.248Z,100281.31
2022-10-22T04:37:43.518Z,100273.28
2022-10-22T04:38:47.548Z,100270.34
2022-10-22T04:39:49.736Z,100266.69
2022-10-22T04:40:51.899Z,100263.94
2022-10-22T04:41:54.450Z,100264.88
2022-10-22T04:42:56.885Z,100265.13
2022-10-22T04:44:00.064Z,100265.06
2022-10-22T04:45:02.511Z,100269.47
2022-10-22T04:46:05.731Z,100268.53
2022-10-22T04:47:08.185Z,100262.53
2022-10-22T04:48:10.381Z,100261.59
2022-10-22T04:49:12.828Z,100258.13
2022-10-22T04:50:15.264Z,100258.16
2022-10-22T04:51:20.343Z,100266.38
2022-10-22T04:52:22.800Z,100262.03
2022-10-22T04:53:24.958Z,100267.34
2022-10-22T04:54:30.500Z,100268.13
2022-10-22T04:55:35.321Z,100264.56
2022-10-22T04:56:37.474Z,100275.53
2022-10-22T04:57:40.175Z,100270.28
2022-10-22T04:58:43.700Z,100275.22
2022-10-22T04:59:45.849Z,100276.09
2022-10-22T05:00:48.224Z,100277.03
2022-10-22T05:01:50.396Z,100277.72
2022-10-22T05:02:52.932Z,100271.59
2022-10-22T05:03:56.472Z,100266.38
2022-10-22T05:04:58.631Z,100273.50
2022-10-22T05:06:02.049Z,100269.66
2022-10-22T05:07:04.423Z,100268.97
2022-10-22T05:08:06.608Z,100270.72
2022-10-22T05:09:13.341Z,100273.03
2022-10-22T05:10:16.011Z,100266.00
2022-10-22T05:11:20.719Z,100277.22
2022-10-22T05:12:23.025Z,100272.97
2022-10-22T05:13:25.311Z,100263.06
2022-10-22T05:14:27.663Z,100264.66
2022-10-22T05:15:29.956Z,100256.66
2022-10-22T05:16:33.916Z,100259.28
2022-10-22T05:17:37.688Z,100257.22
2022-10-22T05:18:42.767Z,100262.75
2022-10-22T05:19:44.941Z,100264.09
2022-10-22T05:20:47.256Z,100267.81
2022-10-22T05:21:51.380Z,100262.66
2022-10-22T05:22:53.826Z,100267.66
2022-10-22T05:23:57.295Z,100265.28
2022-10-22T05:24:59.603Z,100263.41
2022-10-22T05:26:03.866Z,100268.69
2022-10-22T05:27:06.069Z,100268.78
2022-10-22T05:28:08.474Z,100266.97
2022-10-22T05:29:10.987Z,100272.41
2022-10-22T05:30:13.470Z,100264.28
2022-10-22T05:31:17.269Z,100274.94
2022-10-22T05:32:19.583Z,100279.34
2022-10-22T05:33:24.067Z,100276.75
2022-10-22T05:34:26.468Z,100275.81
2022-10-22T05:35:28.777Z,100275.88
2022-10-22T05:36:30.924Z,100282.03
2022-10-22T05:37:33.310Z,100278.09
2022-10-22T05:38:35.867Z,100269.13
2022-10-22T05:39:40.263Z,100271.81
2022-10-22T05:40:42.647Z,100266.56
2022-10-22T05:41:44.890Z,100266.44
2022-10-22T05:42:47.248Z,100270.63
2022-10-22T05:43:49.686Z,100260.72
2022-10-22T05:44:51.830Z,100261.69
2022-10-22T05:45:53.992Z,100259.09
2022-10-22T05:46:56.371Z,100259.16
2022-10-22T05:47:58.638Z,100269.13
2022-10-22T05:49:03.499Z,100266.44
2022-10-22T05:50:06.465Z,100267.34
2022-10-22T05:51:13.193Z,100266.38
2022-10-22T05:52:15.576Z,100273.56
2022-10-22T05:53:18.523Z,100269.56
2022-10-22T05:54:22.456Z,100273.09
2022-10-22T05:55:24.665Z,100274.72
2022-10-22T05:56:29.257Z,100275.25
2022-10-22T05:57:31.444Z,100287.75
2022-10-22T05:58:34.570Z,100285.13
2022-10-22T05:59:36.758Z,100295.97
2022-10-22T06:00:39.329Z,100295.97
2022-10-22T06:01:41.591Z,100300.56
2022-10-22T06:02:43.816Z,100303.44
2022-10-22T06:03:47.209Z,100301.75
2022-10-22T06:04:49.382Z,100300.63
2022-10-22T06:05:52.304Z,100303.31
2022-10-22T06:06:54.553Z,100307.06
2022-10-22T06:07:57.822Z,100304.28
2022-10-22T06:09:05.351Z,100307.91
2022-10-22T06:10:14.868Z,100309.88
2022-10-22T06:11:19.275Z,100314.31
2022-10-22T06:12:21.468Z,100314.31
2022-10-22T06:13:23.683Z,100307.31
2022-10-22T06:14:27.011Z,100302.94
2022-10-22T06:15:29.225Z,100310.16
2022-10-22T06:16:31.904Z,100303.84
2022-10-22T06:17:34.217Z,100298.47
2022-10-22T06:18:36.408Z,100309.88
2022-10-22T06:19:38.880Z,100311.97
2022-10-22T06:20:43.182Z,100311.97
2022-10-22T06:21:45.849Z,100318.38
2022-10-22T06:22:48.339Z,100313.94
2022-10-22T06:23:50.927Z,100310.13
2022-10-22T06:24:53.235Z,100314.28
2022-10-22T06:25:59.255Z,100324.09
2022-10-22T06:27:01.527Z,100324.31
2022-10-22T06:28:03.759Z,100325.81
2022-10-22T06:29:08.733Z,100325.47
2022-10-22T06:30:11.168Z,100332.50
2022-10-22T06:31:14.445Z,100335.91
2022-10-22T06:32:16.846Z,100329.59
2022-10-22T06:33:19.138Z,100326.00
2022-10-22T06:34:21.756Z,100325.22
2022-10-22T06:35:23.998Z,100324.38
2022-10-22T06:36:26.380Z,100322.88
2022-10-22T06:37:28.561Z,100334.66
2022-10-22T06:38:30.872Z,100330.25
2022-10-22T06:39:33.317Z,100327.47
2022-10-22T06:40:35.721Z,100332.59
2022-10-22T06:41:38.042Z,100323.59
2022-10-22T06:42:40.645Z,100330.72
2022-10-22T06:43:47.655Z,100326.13
2022-10-22T06:44:50.007Z,100320.56
2022-10-22T06:45:52.193Z,100330.13
2022-10-22T06:46:55.793Z,100330.84
2022-10-22T06:47:57.958Z,100334.13
2022-10-22T06:49:03.009Z,100335.16
2022-10-22T06:50:05.787Z,100333.44
2022-10-22T06:51:11.280Z,100341.31
2022-10-22T06:52:13.628Z,100341.25
2022-10-22T06:53:15.868Z,100336.59
2022-10-22T06:54:21.084Z,100341.78
2022-10-22T06:55:23.307Z,100343.97
2022-10-22T06:56:27.804Z,100343.19
2022-10-22T06:57:31.002Z,100334.00
2022-10-22T06:58:33.394Z,100339.72
2022-10-22T06:59:35.819Z,100342.34
2022-10-22T07:00:37.995Z,100343.72
2022-10-22T07:01:40.266Z,100338.19
2022-10-22T07:02:42.877Z,100337.22
2022-10-22T07:03:45.676Z,100342.53
2022-10-22T07:04:47.828Z,100340.34
2022-10-22T07:05:50.338Z,100345.06
2022-10-22T07:06:56.051Z,100351.47
2022-10-22T07:07:58.260Z,100356.84
2022-10-22T07:09:00.643Z,100353.38
2022-10-22T07:10:03.275Z,100353.44
2022-10-22T07:11:07.720Z,100346.06
2022-10-22T07:12:10.062Z,100345.13
2022-10-22T07:13:12.285Z,100348.69
2022-10-22T07:14:14.903Z,100356.41
2022-10-22T07:15:17.500Z,100353.47
2022-10-22T07:16:19.857Z,100359.53
2022-10-22T07:17:22.010Z,100354.94
2022-10-22T07:18:24.449Z,100357.81
2022-10-22T07:19:26.835Z,100363.78
2022-10-22T07:20:29.165Z,100373.78
2022-10-22T07:21:31.832Z,100374.56
2022-10-22T07:22:34.166Z,100382.47
2022-10-22T07:23:37.136Z,100378.03
2022-10-22T07:24:39.285Z,100385.94
2022-10-22T07:25:41.921Z,100390.28
2022-10-22T07:26:44.156Z,100381.34
2022-10-22T07:27:46.317Z,100381.34
2022-10-22T07:28:48.650Z,100383.94
2022-10-22T07:29:50.897Z,100371.16
2022-10-22T07:30:53.117Z,100375.44
2022-10-22T07:31:55.318Z,100373.63
2022-10-22T07:32:57.571Z,100376.22
2022-10-22T07:33:59.780Z,100369.94
2022-10-22T07:35:01.938Z,100367.03
2022-10-22T07:36:07.220Z,100373.66
2022-10-22T07:37:09.382Z,100377.28
2022-10-22T07:38:11.548Z,100373.19
2022-10-22T07:39:13.789Z,100383.00
2022-10-22T07:40:16.151Z,100378.91
2022-10-22T07:41:18.361Z,100385.75
2022-10-22T07:42:20.608Z,100384.81
2022-10-22T07:43:22.842Z,100384.28
2022-10-22T07:44:25.077Z,100377.88
2022-10-22T07:45:27.371Z,100392.81
2022-10-22T07:46:29.549Z,100387.50
2022-10-22T07:50:12.859Z,100392.16
2022-10-22T07:51:16.686Z,100401.97
2022-10-22T07:52:18.840Z,100398.50
2022-10-22T07:53:24.122Z,100402.16
2022-10-22T07:54:26.250Z,100397.56
2022-10-22T07:55:28.370Z,100408.25
2022-10-22T07:56:30.718Z,100402.88
2022-10-22T07:57:33.034Z,100413.44
2022-10-22T07:58:35.864Z,100404.78
2022-10-22T07:59:38.013Z,100412.66
2022-10-22T08:00:40.855Z,100414.41
2022-10-22T08:01:43.041Z,100408.94
2022-10-22T08:02:45.432Z,100416.06
2022-10-22T08:03:48.855Z,100416.53
2022-10-22T08:04:51.957Z,100414.75
2022-10-22T08:05:54.606Z,100418.59
2022-10-22T08:06:56.776Z,100417.53
2022-10-22T08:07:59.255Z,100421.41
2022-10-22T08:09:02.173Z,100414.19
2022-10-22T08:10:04.726Z,100419.78
2022-10-22T08:11:07.374Z,100414.53
2022-10-22T08:12:09.601Z,100408.09
2022-10-22T08:13:11.808Z,100414.53
2022-10-22T08:14:14.191Z,100418.88
2022-10-22T08:15:16.548Z,100418.03
2022-10-22T08:16:19.085Z,100413.41
2022-10-22T08:17:21.315Z,100418.88
2022-10-22T08:18:23.499Z,100415.25
2022-10-22T08:19:25.891Z,100409.94
2022-10-22T08:20:28.262Z,100420.72
2022-10-22T08:21:30.658Z,100420.47
2022-10-22T08:22:32.849Z,100412.47
2022-10-22T08:23:35.332Z,100416.63
2022-10-22T08:24:37.686Z,100410.25
2022-10-22T08:25:39.968Z,100405.97
2022-10-22T08:26:42.597Z,100408.75
2022-10-22T08:27:45.777Z,100406.91
2022-10-22T08:28:48.078Z,100406.75
2022-10-22T08:29:50.275Z,100415.50
2022-10-22T08:30:52.547Z,100406.81
2022-10-22T08:31:54.966Z,100412.50
2022-10-22T08:32:57.585Z,100408.25
2022-10-22T08:34:00.052Z,100409.88
2022-10-22T08:35:02.361Z,100422.75
2022-10-22T08:36:05.412Z,100422.44
2022-10-22T08:37:08.861Z,100425.16
2022-10-22T08:38:11.348Z,100421.84
2022-10-22T08:39:14.000Z,100420.31
2022-10-22T08:40:25.890Z,100424.91
2022-10-22T08:41:28.395Z,100432.84
2022-10-22T08:42:45.830Z,100434.91
2022-10-22T08:44:24.896Z,100435.97
2022-10-22T08:45:44.707Z,100443.69
2022-10-22T08:47:22.450Z,100451.78
2022-10-22T08:48:42.352Z,100446.22
2022-10-22T08:49:44.825Z,100451.41
2022-10-22T08:50:50.890Z,100444.88
2022-10-22T08:51:53.660Z,100451.06
2022-10-22T08:53:02.910Z,100456.66
2022-10-22T08:54:19.630Z,100449.69
2022-10-22T08:55:25.597Z,100460.47
2022-10-22T08:56:28.943Z,100461.34
2022-10-22T08:57:52.423Z,100457.59
2022-10-22T08:59:13.950Z,100457.59
2022-10-22T09:00:22.659Z,100461.91
2022-10-22T09:01:46.755Z,100464.72
2022-10-22T09:03:07.120Z,100459.50
2022-10-22T09:04:41.405Z,100458.38
2022-10-22T09:05:55.549Z,100458.69
2022-10-22T09:06:59.364Z,100463.91
2022-10-22T09:08:02.127Z,100453.19
2022-10-22T09:09:13.054Z,100458.69
2022-10-22T09:10:15.643Z,100458.84
2022-10-22T09:11:37.767Z,100456.16
2022-10-22T09:12:40.512Z,100446.25
2022-10-22T09:13:45.547Z,100451.38
2022-10-22T09:14:47.864Z,100453.78
2022-10-22T09:15:59.096Z,100450.22
2022-10-22T09:17:16.306Z,100450.13
2022-10-22T09:18:50.910Z,100436.16
2022-10-22T09:20:16.165Z,100443.09
2022-10-22T09:22:00.976Z,100440.13
2022-10-22T09:23:27.525Z,100430.63
2022-10-22T09:24:55.579Z,100429.75
2022-10-22T09:25:58.140Z,100434.97
2022-10-22T09:27:01.707Z,100438.72
2022-10-22T09:28:04.874Z,100443.94
2022-10-22T09:29:14.158Z,100441.16
2022-10-22T09:30:22.593Z,100440.75
2022-10-22T09:31:28.136Z,100440.94
2022-10-22T09:32:32.045Z,100441.72
2022-10-22T09:33:34.296Z,100442.09
2022-10-22T09:34:36.700Z,100448.19
2022-10-22T09:35:53.426Z,100448.47
2022-10-22T09:37:01.654Z,100443.69
2022-10-22T09:38:08.574Z,100441.75
2022-10-22T09:39:33.657Z,100443.47
2022-10-22T09:40:44.113Z,100445.88
2022-10-22T09:41:46.330Z,100451.94
2022-10-22T09:42:49.619Z,100449.31
2022-10-22T09:43:52.078Z,100457.63
2022-10-22T09:44:59.564Z,100445.84
2022-10-22T09:46:07.605Z,100450.75
2022-10-22T09:47:42.806Z,100456.94
2022-10-22T09:49:03.620Z,100463.28
2022-10-22T09:50:37.054Z,100462.63
2022-10-22T09:52:24.227Z,100459.06
2022-10-22T09:53:29.973Z,100462.91
2022-10-22T09:54:32.261Z,100468.41
2022-10-22T09:55:34.716Z,100466.38
2022-10-22T09:56:42.861Z,100466.56
2022-10-22T09:57:53.432Z,100467.25
2022-10-22T09:58:57.638Z,100472.25
2022-10-22T09:59:59.981Z,100470.84
2022-10-22T10:01:02.573Z,100469.94
2022-10-22T10:02:26.642Z,100473.41
2022-10-22T10:03:39.597Z,100471.47
2022-10-22T10:04:50.375Z,100471.09
2022-10-22T10:05:55.593Z,100471.31
2022-10-22T10:06:58.527Z,100473.03
2022-10-22T10:08:15.660Z,100475.53
2022-10-22T10:09:21.288Z,100465.59
2022-10-22T10:10:31.597Z,100473.03
2022-10-22T10:11:43.549Z,100476.88
2022-10-22T10:13:20.579Z,100471.75
2022-10-22T10:14:48.286Z,100484.00
2022-10-22T10:16:12.059Z,100480.63
2022-10-22T10:17:23.202Z,100477.03
2022-10-22T10:18:45.816Z,100481.38
2022-10-22T10:20:04.075Z,100489.34
2022-10-22T10:22:25.264Z,100485.19
2022-10-22T10:24:09.247Z,100486.72
2022-10-22T10:25:40.683Z,100478.25
2022-10-22T10:26:47.659Z,100477.22
2022-10-22T10:28:25.505Z,100481.19
2022-10-22T10:29:47.791Z,100477.50
2022-10-22T10:31:21.127Z,100474.28
2022-10-22T10:32:48.171Z,100474.44
2022-10-22T10:33:53.004Z,100474.34
2022-10-22T10:35:21.395Z,100464.78
2022-10-22T10:36:41.607Z,100474.44
2022-10-22T10:37:51.096Z,100464.59
2022-10-22T10:39:34.703Z,100470.31
2022-10-22T10:40:36.824Z,100480.66
2022-10-22T10:42:01.600Z,100470.69
2022-10-22T10:43:20.664Z,100469.81
2022-10-22T10:45:07.417Z,100471.31
2022-10-22T10:46:36.234Z,100465.03
2022-10-22T10:47:51.589Z,100467.13
2022-10-22T10:48:53.794Z,100473.06
2022-10-22T10:50:16.757Z,100474.00
2022-10-22T10:51:28.975Z,100477.88
2022-10-22T10:52:49.807Z,100464.13
2022-10-22T10:54:26.496Z,100468.13
2022-10-22T10:55:36.339Z,100470.19
2022-10-22T10:57:09.812Z,100469.75
2022-10-22T10:58:21.659Z,100473.97
2022-10-22T10:59:32.697Z,100470.50
2022-10-22T11:00:45.637Z,100477.34
2022-10-22T11:02:20.227Z,100473.88
2022-10-22T11:03:39.944Z,100482.66
2022-10-22T11:04:59.180Z,100481.47
2022-10-22T11:06:09.824Z,100485.34
2022-10-22T11:07:33.461Z,100478.09
2022-10-22T11:08:39.623Z,100485.78
2022-10-22T11:09:48.267Z,100488.84
2022-10-22T11:10:59.490Z,100482.09
2022-10-22T11:12:06.886Z,100484.56
2022-10-22T11:13:19.608Z,100484.56
2022-10-22T11:15:07.014Z,100484.56
2022-10-22T11:16:27.217Z,100482.56
2022-10-22T11:17:40.110Z,100483.06
2022-10-22T11:18:58.348Z,100488.69
2022-10-22T11:20:15.651Z,100482.00
2022-10-22T11:21:22.756Z,100480.34
2022-10-22T11:23:00.357Z,100480.25
2022-10-22T11:24:05.439Z,100482.63
2022-10-22T11:25:13.787Z,100482.94
2022-10-22T11:26:46.191Z,100482.75
2022-10-22T11:28:06.742Z,100474.50
2022-10-22T11:29:22.258Z,100481.88
2022-10-22T11:30:28.650Z,100481.88
2022-10-22T11:31:32.570Z,100488.28
2022-10-22T11:32:35.489Z,100477.97
2022-10-22T11:34:28.516Z,100484.91
2022-10-22T11:35:41.408Z,100483.53
2022-10-22T11:36:45.747Z,100488.50
2022-10-22T11:37:48.448Z,100482.00
2022-10-22T11:38:51.355Z,100489.47
2022-10-22T11:40:07.949Z,100496.38
2022-10-22T11:41:13.733Z,100483.19
2022-10-22T11:42:39.376Z,100489.22
2022-10-22T11:43:58.736Z,100499.75
2022-10-22T11:45:05.160Z,100498.91
2022-10-22T11:46:16.227Z,100492.06
2022-10-22T11:47:26.818Z,100495.06
2022-10-22T11:48:36.307Z,100496.41
2022-10-22T11:49:44.857Z,100493.25
2022-10-22T11:51:02.138Z,100495.50
2022-10-22T11:52:32.600Z,100496.25
2022-10-22T11:53:38.896Z,100495.06
2022-10-22T11:54:44.566Z,100489.66
2022-10-22T11:55:49.959Z,100490.41
2022-10-22T11:56:58.448Z,100493.03
2022-10-22T11:58:02.848Z,100489.91
2022-10-22T11:59:28.565Z,100488.94
2022-10-22T12:00:39.577Z,100487.53
2022-10-22T12:01:42.603Z,100494.56
2022-10-22T12:02:45.270Z,100489.25
2022-10-22T12:04:20.508Z,100489.03
2022-10-22T12:05:22.771Z,100490.88
2022-10-22T12:06:29.329Z,100490.34
2022-10-22T12:07:56.997Z,100492.41
2022-10-22T12:09:04.753Z,100495.53
2022-10-22T12:10:19.239Z,100491.81
2022-10-22T12:11:37.452Z,100489.13
2022-10-22T12:12:40.602Z,100492.28
2022-10-22T12:14:03.573Z,100490.31
2022-10-22T12:15:24.248Z,100494.53
2022-10-22T12:16:37.778Z,100489.47
2022-10-22T12:18:05.973Z,100490.97
2022-10-22T12:19:11.214Z,100498.56
2022-10-22T12:20:14.432Z,100494.13
2022-10-22T12:21:17.104Z,100492.16
2022-10-22T12:22:25.183Z,100493.25
2022-10-22T12:23:34.198Z,100496.81
2022-10-22T12:24:40.660Z,100491.41
2022-10-22T12:25:43.004Z,100484.91
2022-10-22T12:26:46.959Z,100488.16
2022-10-22T12:27:55.130Z,100494.03
2022-10-22T12:29:10.367Z,100490.31
2022-10-22T12:30:27.736Z,100493.69
2022-10-22T12:31:36.547Z,100488.06
2022-10-22T12:32:42.529Z,100487.66
2022-10-22T12:33:45.755Z,100485.47
2022-10-22T12:34:52.468Z,100490.69
2022-10-22T12:35:57.676Z,100487.44
2022-10-22T12:37:00.150Z,100494.22
2022-10-22T12:38:08.585Z,100486.53
2022-10-22T12:39:16.748Z,100487.84
2022-10-22T12:40:33.270Z,100486.44
2022-10-22T12:41:38.558Z,100496.94
2022-10-22T12:42:48.156Z,100489.91
2022-10-22T12:43:59.142Z,100490.31
2022-10-22T12:45:01.503Z,100492.03
2022-10-22T12:46:03.757Z,100488.69
2022-10-22T12:47:08.603Z,100487.47
2022-10-22T12:48:35.095Z,100486.56
2022-10-22T12:49:43.329Z,100478.78
2022-10-22T12:50:50.735Z,100487.22
2022-10-22T12:51:54.037Z,100480.19
2022-10-22T12:52:56.313Z,100486.63
2022-10-22T12:54:07.035Z,100493.44
2022-10-22T12:55:10.739Z,100496.00
2022-10-22T12:56:16.438Z,100491.13